Time;durP1;ratioP1;P1;durP2;ratioP2;P2;SDS_P1;SDS_P2;PMS_P1;PMS_P2;Temp;Humidity;BMP_temperature;BMP_pressure;BME280_temperature;BME280_humidity;BME280_pressure;Samples;Min_cycle;Max_cycle;Signal;HPM_P1;HPM_P2
2021/04/03 00:01:07;;;;;;;13.57;8.07;;;;;;;6.77;50.31;99728.05;115315;1200;103082;-78
2021/04/03 00:03:34;;;;;;;15.90;8.50;;;;;;;6.77;50.30;99737.57;115305;1198;102966;-77
2021/04/03 00:06:02;;;;;;;15.67;8.10;;;;;;;6.73;50.20;99734.20;115247;1199;103130;-78
2021/04/03 00:08:30;;;;;;;14.77;8.20;;;;;;;6.68;50.56;99733.48;115292;1199;103047;-77
2021/04/03 00:11:03;;;;;;;13.10;7.47;;;;;;;6.64;50.25;99722.34;115550;1196;103440;-78
2021/04/03 00:13:42;;;;;;;12.37;7.60;;;;;;;6.62;50.40;99733.61;115326;1200;102993;-76
2021/04/03 00:16:10;;;;;;;;;;;;;;;6.60;50.64;99731.05;115352;1205;103194;-77
2021/04/03 00:18:37;;;;;;;14.27;7.73;;;;;;;6.57;50.39;99741.50;115523;1196;102964;-77
2021/04/03 00:21:04;;;;;;;13.43;8.05;;;;;;;6.54;50.66;99735.55;115290;1200;103030;-77
2021/04/03 00:23:32;;;;;;;13.80;7.90;;;;;;;6.52;51.13;99732.14;115272;1196;103775;-76
2021/04/03 00:26:01;;;;;;;14.13;8.00;;;;;;;6.52;51.32;99737.33;115263;1197;103082;-75
2021/04/03 00:28:28;;;;;;;12.53;7.83;;;;;;;6.53;51.42;99736.44;115537;1196;103079;-75
2021/04/03 00:30:55;;;;;;;16.70;8.37;;;;;;;6.50;51.23;99728.73;115595;1196;102973;-76
2021/04/03 00:33:22;;;;;;;14.13;8.17;;;;;;;6.48;51.68;99730.52;115248;1199;103069;-77
2021/04/03 00:35:49;;;;;;;13.90;7.63;;;;;;;6.47;51.41;99727.08;115251;1196;103018;-76
2021/04/03 00:38:16;;;;;;;11.80;7.30;;;;;;;6.45;51.60;99726.23;115525;1198;103040;-76
2021/04/03 00:40:46;;;;;;;13.73;7.93;;;;;;;6.46;51.52;99721.91;115349;1197;103223;-76
2021/04/03 00:43:16;;;;;;;12.17;7.77;;;;;;;6.46;51.63;99716.72;115328;1199;103057;-77
2021/04/03 00:45:44;;;;;;;12.40;8.30;;;;;;;6.46;51.76;99714.13;115262;1200;103008;-76
2021/04/03 00:48:13;;;;;;;12.60;8.03;;;;;;;6.44;51.88;99714.17;115300;1200;102995;-76
2021/04/03 00:50:43;;;;;;;13.80;8.13;;;;;;;6.43;51.76;99712.47;115520;1200;102925;-77
2021/04/03 00:53:29;;;;;;;11.37;7.63;;;;;;;6.41;51.94;99718.58;115314;1200;104246;-76
2021/04/03 00:56:06;;;;;;;12.83;7.87;;;;;;;6.39;51.70;99723.80;115510;1194;103091;-76
2021/04/03 00:58:34;;;;;;;12.13;7.60;;;;;;;6.38;52.21;99719.51;115248;1198;103044;-76
2021/04/03 01:01:03;;;;;;;11.67;7.67;;;;;;;6.35;51.83;99715.25;115259;1196;103213;-76
2021/04/03 01:03:33;;;;;;;13.27;7.57;;;;;;;6.33;51.93;99716.18;115323;1199;103126;-76
2021/04/03 01:06:01;;;;;;;13.17;7.60;;;;;;;6.29;52.11;99714.56;115500;1200;102970;-76
2021/04/03 01:08:29;;;;;;;11.40;7.13;;;;;;;6.26;52.21;99710.27;115257;1199;102993;-76
2021/04/03 01:10:57;;;;;;;12.53;7.87;;;;;;;6.20;52.17;99710.42;115497;1196;103133;-76
2021/04/03 01:13:47;;;;;;;12.20;7.60;;;;;;;6.16;52.56;99718.30;115314;1196;104083;-77
2021/04/03 01:16:36;;;;;;;11.55;7.75;;;;;;;6.09;52.37;99721.90;115513;1196;105052;-78
2021/04/03 01:19:34;;;;;;;12.13;7.57;;;;;;;6.06;52.81;99713.31;115585;1196;102989;-77
2021/04/03 01:22:28;;;;;;;13.30;7.90;;;;;;;6.05;52.81;99721.97;115311;1199;103100;-76
2021/04/03 01:25:17;;;;;;;12.47;8.03;;;;;;;6.04;53.24;99717.68;115514;1199;102832;-77
2021/04/03 01:28:10;;;;;;;11.93;7.83;;;;;;;6.01;53.10;99720.34;115545;1197;103059;-75
2021/04/03 01:30:40;;;;;;;12.77;7.47;;;;;;;5.99;53.56;99722.12;115326;1199;103124;-76
2021/04/03 01:33:11;;;;;;;13.03;7.53;;;;;;;6.00;53.56;99723.81;115528;1197;103078;-76
2021/04/03 01:35:53;;;;;;;11.97;7.37;;;;;;;6.02;53.72;99723.78;115583;1196;103043;-76
2021/04/03 01:38:44;;;;;;;11.80;7.33;;;;;;;6.04;53.34;99720.27;115540;1199;103091;-77
2021/04/03 01:41:17;;;;;;;9.50;6.30;;;;;;;6.05;53.53;99721.97;115531;1196;103050;-76
2021/04/03 01:43:49;;;;;;;10.37;6.60;;;;;;;6.08;53.55;99731.41;115232;1200;102912;-76
2021/04/03 01:46:23;;;;;;;11.97;6.70;;;;;;;6.11;53.46;99720.16;115464;1196;103068;-76
2021/04/03 01:48:54;;;;;;;10.43;6.60;;;;;;;6.12;53.60;99712.35;115293;1200;103124;-76
2021/04/03 01:51:23;;;;;;;13.23;7.03;;;;;;;6.13;53.63;99720.97;115247;1199;103824;-76
2021/04/03 01:53:52;;;;;;;13.57;7.27;;;;;;;6.13;53.80;99713.20;115314;1200;103072;-77
2021/04/03 01:56:22;;;;;;;10.67;6.40;;;;;;;6.11;54.06;99715.83;115269;1199;103006;-76
2021/04/03 01:58:51;;;;;;;11.43;6.97;;;;;;;6.11;54.20;99720.16;115565;1196;103410;-78
2021/04/03 02:01:19;;;;;;;9.90;6.53;;;;;;;6.08;54.38;99718.46;115331;1200;103044;-76
2021/04/03 02:03:48;;;;;;;13.43;7.00;;;;;;;6.08;54.10;99715.02;115499;1199;103036;-76
2021/04/03 02:06:20;;;;;;;11.47;6.93;;;;;;;6.03;54.29;99710.80;115304;1199;102373;-77
2021/04/03 02:09:19;;;;;;;14.35;7.50;;;;;;;5.99;54.08;99711.77;115463;1197;103340;-76
2021/04/03 02:11:53;;;;;;;10.27;6.37;;;;;;;5.95;54.33;99704.95;115405;1199;103024;-75
2021/04/03 02:14:39;;;;;;;;;;;;;;;5.91;54.30;99708.47;115297;1204;103079;-77
2021/04/03 02:17:08;;;;;;;9.20;5.67;;;;;;;5.87;54.41;99717.16;115540;1200;102928;-76
2021/04/03 02:19:39;;;;;;;9.00;6.00;;;;;;;5.82;54.47;99713.83;115373;1196;103022;-76
2021/04/03 02:22:19;;;;;;;8.45;5.60;;;;;;;5.78;54.35;99717.38;115331;1199;103021;-76
2021/04/03 02:24:58;;;;;;;9.63;4.90;;;;;;;5.73;54.50;99719.18;115547;1197;103021;-77
2021/04/03 02:27:28;;;;;;;9.97;6.00;;;;;;;5.67;54.76;99721.91;115314;1197;103060;-77
2021/04/03 02:29:55;;;;;;;10.67;5.87;;;;;;;5.62;54.93;99721.16;115265;1200;103082;-77
2021/04/03 02:32:23;;;;;;;10.40;6.00;;;;;;;5.56;54.82;99721.27;115546;1199;103133;-76
2021/04/03 02:34:50;;;;;;;12.00;6.40;;;;;;;5.48;54.91;99716.25;115565;1196;103021;-76
2021/04/03 02:37:38;;;;;;;9.13;5.60;;;;;;;5.43;55.09;99725.84;115538;1199;100617;-76
2021/04/03 02:40:09;;;;;;;7.80;4.90;;;;;;;5.37;54.98;99734.55;115286;1200;102991;-77
2021/04/03 02:42:48;;;;;;;10.53;5.03;;;;;;;5.31;54.70;99729.52;115200;1199;103148;-77
2021/04/03 02:45:21;;;;;;;10.30;4.97;;;;;;;5.25;54.57;99727.05;115443;1199;103135;-76
2021/04/03 02:47:51;;;;;;;7.47;4.50;;;;;;;5.21;54.37;99720.24;115392;1198;103433;-75
2021/04/03 02:50:40;;;;;;;6.53;4.20;;;;;;;5.16;54.29;99716.87;115317;1196;100634;-76
2021/04/03 02:53:15;;;;;;;6.53;4.10;;;;;;;5.11;54.58;99723.86;115241;1199;103100;-76
2021/04/03 02:55:48;;;;;;;7.00;4.07;;;;;;;5.08;54.50;99718.75;115520;1196;103024;-76
2021/04/03 02:58:19;;;;;;;10.50;4.77;;;;;;;5.02;54.65;99722.28;115307;1196;103066;-76
2021/04/03 03:00:51;;;;;;;9.27;4.60;;;;;;;4.96;54.80;99732.73;115325;1199;103158;-76
2021/04/03 03:03:21;;;;;;;7.13;4.37;;;;;;;4.92;54.95;99735.41;115581;1198;103028;-75
2021/04/03 03:05:53;;;;;;;10.67;4.87;;;;;;;4.89;55.06;99730.30;115503;1198;102982;-76
2021/04/03 03:08:22;;;;;;;7.93;4.63;;;;;;;4.87;55.22;99732.06;115472;1200;103162;-76
2021/04/03 03:10:50;;;;;;;5.97;4.10;;;;;;;4.81;55.02;99736.44;115537;1196;103095;-76
2021/04/03 03:13:18;;;;;;;5.83;4.13;;;;;;;4.79;55.29;99738.19;115339;1199;103050;-76
2021/04/03 03:15:46;;;;;;;9.23;4.10;;;;;;;4.78;55.31;99746.82;115458;1196;103017;-76
2021/04/03 03:18:16;;;;;;;7.73;4.70;;;;;;;4.77;55.70;99737.37;115261;1199;103082;-76
2021/04/03 03:20:45;;;;;;;14.93;6.83;;;;;;;4.77;55.54;99745.13;115284;1196;104306;-76
2021/04/03 03:23:15;;;;;;;17.50;8.20;;;;;;;4.75;55.66;99741.72;115465;1196;104676;-77
2021/04/03 03:25:44;;;;;;;12.80;6.50;;;;;;;4.75;55.89;99740.86;115277;1200;103024;-76
2021/04/03 03:28:12;;;;;;;10.17;5.43;;;;;;;4.76;56.16;99738.25;115286;1196;102127;-76
2021/04/03 03:30:43;;;;;;;7.03;4.83;;;;;;;4.76;56.72;99737.39;115565;1196;103009;-76
2021/04/03 03:33:13;;;;;;;7.50;4.37;;;;;;;4.71;56.69;99746.96;115360;1200;101535;-77
2021/04/03 03:35:41;;;;;;;8.43;4.83;;;;;;;4.66;57.71;99746.16;115346;1199;103020;-76
2021/04/03 03:38:09;;;;;;;7.07;4.53;;;;;;;4.58;58.06;99748.88;115536;1197;102998;-76
2021/04/03 03:40:37;;;;;;;7.80;5.10;;;;;;;4.50;58.66;99750.74;115390;1196;103020;-76
2021/04/03 03:43:09;;;;;;;7.73;4.80;;;;;;;4.43;58.98;99743.95;115322;1200;103127;-76
2021/04/03 03:45:37;;;;;;;7.83;4.83;;;;;;;4.35;58.77;99756.13;115299;1199;103049;-76
2021/04/03 03:48:04;;;;;;;9.07;5.60;;;;;;;4.30;58.85;99755.33;115540;1199;103453;-76
2021/04/03 03:50:35;;;;;;;6.30;4.10;;;;;;;4.23;59.36;99750.27;115275;1196;103059;-76
2021/04/03 03:53:03;;;;;;;6.67;3.67;;;;;;;4.18;59.89;99762.39;115408;1198;103184;-76
2021/04/03 03:55:31;;;;;;;6.03;3.50;;;;;;;4.13;60.46;99760.72;115564;1199;103426;-75
2021/04/03 03:57:58;;;;;;;8.13;3.87;;;;;;;4.13;60.78;99763.30;115249;1199;103130;-76
2021/04/03 04:00:26;;;;;;;4.67;3.37;;;;;;;4.06;60.75;99757.38;115313;1196;102986;-77
2021/04/03 04:02:59;;;;;;;6.37;3.63;;;;;;;4.02;61.37;99770.36;115595;1196;103113;-78
2021/04/03 04:05:27;;;;;;;8.10;3.67;;;;;;;3.96;62.81;99771.30;115599;1196;103034;-76
2021/04/03 04:08:01;;;;;;;5.87;3.37;;;;;;;3.82;63.61;99770.61;115479;1199;103174;-77
2021/04/03 04:10:29;;;;;;;7.57;3.77;;;;;;;3.69;63.11;99774.20;115280;1199;103134;-76
2021/04/03 04:12:57;;;;;;;5.27;3.47;;;;;;;3.61;63.52;99775.16;115268;1199;103059;-76
2021/04/03 04:15:24;;;;;;;6.95;3.20;;;;;;;3.53;63.71;99779.53;115331;1197;103005;-76
2021/04/03 04:17:52;;;;;;;6.13;3.53;;;;;;;3.48;63.78;99783.03;115378;1199;103207;-76
2021/04/03 04:20:20;;;;;;;5.60;3.47;;;;;;;3.44;64.30;99781.38;115291;1200;102996;-76
2021/04/03 04:22:50;;;;;;;4.60;3.10;;;;;;;3.41;64.48;99783.95;115522;1196;103453;-76
2021/04/03 04:25:18;;;;;;;4.67;3.47;;;;;;;3.37;64.95;99793.45;115293;1194;103047;-76
2021/04/03 04:27:45;;;;;;;5.83;3.70;;;;;;;3.38;64.76;99789.14;115293;1199;103034;-76
2021/04/03 04:30:14;;;;;;;5.40;4.10;;;;;;;3.32;65.82;99790.92;115529;1199;102989;-77
2021/04/03 04:32:50;;;;;;;7.20;4.13;;;;;;;3.30;65.55;99796.97;115345;1196;103105;-76
2021/04/03 04:35:18;;;;;;;6.10;4.10;;;;;;;3.28;65.62;99796.14;115531;1196;103142;-76
2021/04/03 04:37:49;;;;;;;7.23;4.10;;;;;;;3.27;65.69;99791.85;115572;1196;103505;-76
2021/04/03 04:40:16;;;;;;;8.30;4.90;;;;;;;3.26;65.86;99791.00;115490;1196;103137;-75
2021/04/03 04:42:45;;;;;;;7.73;4.50;;;;;;;3.28;65.95;99794.41;115288;1196;103488;-75
2021/04/03 04:45:13;;;;;;;7.57;4.20;;;;;;;3.28;65.93;99794.41;115483;1197;102980;-78
2021/04/03 04:47:41;;;;;;;7.17;4.10;;;;;;;3.27;65.98;99790.13;115284;1196;103216;-76
2021/04/03 04:50:10;;;;;;;5.63;4.30;;;;;;;3.29;66.63;99784.95;115535;1199;103432;-75
2021/04/03 04:52:39;;;;;;;6.20;4.40;;;;;;;3.32;66.34;99785.77;115575;1196;103043;-77
2021/04/03 04:55:08;;;;;;;6.70;4.30;;;;;;;3.34;66.49;99793.48;115290;1199;103080;-75
2021/04/03 04:57:36;;;;;;;7.13;4.37;;;;;;;3.34;66.63;99789.19;115299;1197;103024;-76
2021/04/03 05:00:06;;;;;;;6.97;3.80;;;;;;;3.32;66.66;99801.23;115488;1196;103133;-76
2021/04/03 05:02:54;;;;;;;5.93;3.87;;;;;;;3.31;66.76;99798.67;115595;1196;103118;-76
2021/04/03 05:05:21;;;;;;;5.73;4.17;;;;;;;3.33;67.00;99796.94;115519;1201;103858;-76
2021/04/03 05:07:48;;;;;;;6.30;3.90;;;;;;;3.35;67.24;99810.66;115429;1196;103025;-76
2021/04/03 05:10:17;;;;;;;6.50;4.30;;;;;;;3.37;67.08;99808.91;115306;1196;103059;-76
2021/04/03 05:12:44;;;;;;;7.13;4.10;;;;;;;3.37;67.11;99814.07;115252;1196;103944;-76
2021/04/03 05:15:12;;;;;;;7.20;4.47;;;;;;;3.35;67.53;99818.39;115548;1196;103076;-76
2021/04/03 05:17:39;;;;;;;7.83;3.77;;;;;;;3.34;67.46;99819.27;115485;1199;103049;-76
2021/04/03 05:20:06;;;;;;;8.17;4.40;;;;;;;3.29;67.40;99816.73;115510;1199;102964;-76
2021/04/03 05:22:34;;;;;;;7.17;4.67;;;;;;;3.27;67.71;99817.63;115330;1198;103628;-76
2021/04/03 05:25:01;;;;;;;7.87;5.40;;;;;;;3.29;67.62;99821.04;115333;1197;102951;-76
2021/04/03 05:27:28;;;;;;;6.30;4.50;;;;;;;3.29;67.56;99819.31;115267;1197;103105;-76
2021/04/03 05:29:55;;;;;;;6.13;4.17;;;;;;;3.34;67.70;99821.84;115574;1196;103015;-76
2021/04/03 05:32:22;;;;;;;5.70;4.37;;;;;;;3.36;68.09;99825.25;115328;1199;103094;-76
2021/04/03 05:34:49;;;;;;;8.73;4.67;;;;;;;3.38;67.57;99831.24;115521;1199;103140;-76
2021/04/03 05:37:19;;;;;;;17.23;9.70;;;;;;;3.39;67.81;99830.38;115304;1198;103102;-77
2021/04/03 05:39:46;;;;;;;7.97;5.30;;;;;;;3.43;67.97;99833.80;115590;1196;103156;-77
2021/04/03 05:42:20;;;;;;;8.33;4.87;;;;;;;3.45;67.67;99830.34;115348;1196;101358;-76
2021/04/03 05:44:49;;;;;;;7.50;5.40;;;;;;;3.48;67.76;99832.88;115619;1197;103024;-77
2021/04/03 05:47:16;;;;;;;8.33;5.90;;;;;;;3.51;67.85;99832.84;115282;1196;103098;-76
2021/04/03 05:49:44;;;;;;;7.87;5.40;;;;;;;3.56;67.92;99827.63;115502;1196;103017;-76
2021/04/03 05:52:11;;;;;;;7.43;4.60;;;;;;;3.58;67.98;99828.46;115324;1200;103085;-76
2021/04/03 05:54:39;;;;;;;9.30;5.90;;;;;;;3.64;68.35;99828.42;115363;1199;101943;-77
2021/04/03 05:57:07;;;;;;;7.93;5.33;;;;;;;3.72;68.25;99818.01;115538;1199;103101;-76
2021/04/03 05:59:35;;;;;;;7.27;5.17;;;;;;;3.77;68.16;99824.84;115467;1198;103098;-76
2021/04/03 06:02:05;;;;;;;9.07;5.83;;;;;;;3.84;68.26;99828.20;115348;1200;103037;-76
2021/04/03 06:04:33;;;;;;;7.13;5.30;;;;;;;3.89;68.26;99823.83;115386;1196;103069;-76
2021/04/03 06:07:00;;;;;;;8.70;6.30;;;;;;;3.95;68.04;99831.52;115435;1197;103009;-76
2021/04/03 06:09:29;;;;;;;11.13;6.07;;;;;;;3.97;67.99;99831.49;115541;1196;103069;-76
2021/04/03 06:11:56;;;;;;;9.83;6.50;;;;;;;4.00;68.21;99827.14;115552;1196;103040;-77
2021/04/03 06:14:23;;;;;;;11.60;6.63;;;;;;;4.10;68.28;99820.13;115276;1199;103037;-76
2021/04/03 06:16:51;;;;;;;11.03;6.43;;;;;;;4.18;68.50;99821.75;115457;1196;103044;-76
2021/04/03 06:19:26;;;;;;;9.23;6.83;;;;;;;4.25;68.34;99822.52;115600;1197;103011;-76
2021/04/03 06:21:53;;;;;;;11.30;7.80;;;;;;;4.30;67.89;99818.13;115301;1199;103949;-77
2021/04/03 06:24:22;;;;;;;8.87;6.63;;;;;;;4.38;67.84;99828.38;115479;1200;103165;-77
2021/04/03 06:27:08;;;;;;;13.15;7.55;;;;;;;4.45;67.44;99824.82;115348;1199;103075;-76
2021/04/03 06:29:46;;;;;;;13.70;8.67;;;;;;;4.53;67.62;99826.44;115542;1196;103038;-76
2021/04/03 06:32:35;;;;;;;13.13;8.17;;;;;;;4.63;67.29;99824.55;115321;1199;102982;-77
2021/04/03 06:35:02;;;;;;;18.10;10.80;;;;;;;4.68;66.76;99833.11;115280;1196;103082;-77
2021/04/03 06:37:32;;;;;;;11.87;7.50;;;;;;;4.70;66.87;99836.52;115441;1199;103813;-77
2021/04/03 06:40:07;;;;;;;12.50;7.20;;;;;;;4.71;66.78;99840.81;115515;1196;103002;-77
2021/04/03 06:42:55;;;;;;;11.47;6.73;;;;;;;4.71;66.62;99832.21;115526;1198;103012;-77
2021/04/03 06:45:30;;;;;;;9.00;6.67;;;;;;;4.71;66.85;99838.23;115318;1198;103050;-77
2021/04/03 06:48:04;;;;;;;10.77;7.23;;;;;;;4.72;67.07;99844.25;115565;1199;103124;-77
2021/04/03 06:50:35;;;;;;;11.77;7.13;;;;;;;4.71;66.48;99842.55;115312;1199;103414;-77
2021/04/03 06:53:06;;;;;;;8.47;6.17;;;;;;;4.71;66.90;99850.30;115342;1196;102983;-76
2021/04/03 06:55:34;;;;;;;10.47;6.53;;;;;;;4.70;66.96;99844.27;115269;1196;103034;-76
2021/04/03 06:58:04;;;;;;;10.10;6.60;;;;;;;4.73;67.11;99853.70;115303;1198;103003;-75
2021/04/03 07:00:32;;;;;;;9.20;6.65;;;;;;;4.74;66.98;99852.83;115333;1199;103006;-76
2021/04/03 07:03:06;;;;;;;10.57;6.10;;;;;;;4.72;66.43;99852.00;115263;1200;103156;-78
2021/04/03 07:05:35;;;;;;;11.33;7.00;;;;;;;4.65;66.93;99858.96;115417;1198;103002;-77
2021/04/03 07:08:04;;;;;;;9.63;7.67;;;;;;;4.66;67.17;99857.23;115608;1197;103095;-79
2021/04/03 07:10:33;;;;;;;11.77;7.53;;;;;;;4.66;66.21;99860.67;115360;1199;103021;-78
2021/04/03 07:13:01;;;;;;;13.00;8.50;;;;;;;4.71;65.97;99869.23;115586;1198;102996;-77
2021/04/03 07:15:30;;;;;;;11.00;7.20;;;;;;;4.74;65.80;99868.33;115312;1200;103053;-78
2021/04/03 07:17:57;;;;;;;13.07;7.13;;;;;;;4.73;65.74;99867.47;115325;1199;103165;-78
2021/04/03 07:20:30;;;;;;;11.45;7.20;;;;;;;4.74;65.84;99871.77;115377;1199;103066;-78
2021/04/03 07:23:10;;;;;;;12.03;7.03;;;;;;;4.71;65.88;99869.23;115476;1199;103015;-78
2021/04/03 07:25:40;;;;;;;10.65;7.05;;;;;;;4.68;65.15;99877.03;115337;1199;103060;-78
2021/04/03 07:28:08;;;;;;;8.40;6.10;;;;;;;4.65;64.77;99884.80;115299;1199;102816;-78
2021/04/03 07:30:35;;;;;;;8.23;5.50;;;;;;;4.65;64.36;99884.80;115311;1199;103037;-78
2021/04/03 07:33:16;;;;;;;10.93;6.37;;;;;;;4.60;64.41;99891.77;115295;1198;103027;-76
2021/04/03 07:35:48;;;;;;;9.03;5.90;;;;;;;4.56;64.21;99903.02;115605;1196;104777;-78
2021/04/03 07:38:29;;;;;;;11.83;6.80;;;;;;;4.56;64.37;99910.77;115263;1196;103104;-77
2021/04/03 07:41:10;;;;;;;10.63;6.10;;;;;;;4.54;64.13;99915.09;115451;1199;103526;-77
2021/04/03 07:43:48;;;;;;;7.67;5.73;;;;;;;4.54;63.60;99917.68;115572;1196;103073;-78
2021/04/03 07:46:38;;;;;;;7.57;5.60;;;;;;;4.54;63.58;99930.59;115562;1196;102966;-77
2021/04/03 07:49:05;;;;;;;7.33;5.33;;;;;;;4.61;63.35;99924.46;115330;1196;103107;-78
2021/04/03 07:51:32;;;;;;;8.43;5.63;;;;;;;4.67;63.09;99928.68;115298;1197;103059;-79
2021/04/03 07:54:11;;;;;;;8.00;6.20;;;;;;;4.77;63.11;99930.28;115542;1197;103076;-78
2021/04/03 07:56:47;;;;;;;8.55;5.60;;;;;;;4.89;62.87;99924.10;115598;1199;102960;-77
2021/04/03 07:59:15;;;;;;;10.80;5.70;;;;;;;5.03;62.61;99935.95;115303;1199;103124;-77
2021/04/03 08:01:52;;;;;;;8.23;5.45;;;;;;;5.10;61.98;99934.13;115339;1199;103405;-78
2021/04/03 08:04:25;;;;;;;10.13;6.13;;;;;;;5.16;61.99;99936.60;115488;1200;102998;-79
2021/04/03 08:06:58;;;;;;;8.80;5.93;;;;;;;5.26;61.94;99942.50;115303;1197;102839;-75
2021/04/03 08:09:32;;;;;;;8.03;6.27;;;;;;;5.40;61.91;99943.15;115353;1196;103137;-78
2021/04/03 08:12:00;;;;;;;9.90;6.97;;;;;;;5.50;61.63;99943.84;115387;1196;102989;-78
2021/04/03 08:14:28;;;;;;;10.77;6.27;;;;;;;5.64;61.48;99947.06;115424;1196;103011;-80
2021/04/03 08:16:56;;;;;;;7.87;6.03;;;;;;;5.98;61.13;99950.80;115424;1197;103155;-79
2021/04/03 08:19:25;;;;;;;6.60;5.45;;;;;;;6.53;60.63;99954.06;115628;1196;104562;-80
2021/04/03 08:21:53;;;;;;;8.80;6.53;;;;;;;6.97;59.53;99958.30;115491;1200;103097;-80
2021/04/03 08:24:21;;;;;;;10.93;7.43;;;;;;;7.27;58.77;99960.20;115403;1199;103107;-79
2021/04/03 08:26:49;;;;;;;6.67;5.30;;;;;;;7.58;57.95;99955.14;115404;1200;103066;-77
2021/04/03 08:29:19;;;;;;;8.03;5.10;;;;;;;7.78;56.94;99965.03;115389;1195;103069;-78
2021/04/03 08:31:51;;;;;;;8.00;5.00;;;;;;;8.04;56.17;99971.28;115316;1199;103031;-79
2021/04/03 08:34:21;;;;;;;7.93;5.27;;;;;;;8.23;56.06;99963.85;115460;1196;103005;-78
2021/04/03 08:36:49;;;;;;;9.73;6.30;;;;;;;8.36;55.72;99962.67;115408;1196;103092;-78
2021/04/03 08:39:19;;;;;;;9.23;6.33;;;;;;;8.49;55.45;99966.64;115422;1196;103465;-78
2021/04/03 08:41:48;;;;;;;7.37;5.43;;;;;;;8.55;54.25;99968.20;115426;1196;103031;-79
2021/04/03 08:44:24;;;;;;;5.17;4.40;;;;;;;8.49;53.66;99961.44;115354;1196;103120;-78
2021/04/03 08:46:57;;;;;;;6.70;4.20;;;;;;;8.27;53.64;99974.14;115579;1199;103021;-78
2021/04/03 08:49:28;;;;;;;7.30;4.80;;;;;;;8.43;54.21;99969.38;115603;1196;103143;-78
2021/04/03 08:51:55;;;;;;;9.03;4.27;;;;;;;8.57;53.22;99976.80;115340;1196;103034;-78
2021/04/03 08:54:23;;;;;;;5.43;4.57;;;;;;;8.86;53.79;99979.43;115390;1199;102395;-79
2021/04/03 08:56:50;;;;;;;6.30;4.50;;;;;;;9.33;53.24;99979.72;115331;1199;103046;-79
2021/04/03 08:59:20;;;;;;;5.60;3.93;;;;;;;10.82;52.92;99974.63;115348;1199;103069;-79
2021/04/03 09:01:50;;;;;;;6.80;4.10;;;;;;;11.99;50.81;99979.55;115389;1197;102998;-79
2021/04/03 09:04:20;;;;;;;5.67;3.63;;;;;;;12.26;49.50;99976.69;115382;1199;103143;-79
2021/04/03 09:06:55;;;;;;;4.27;3.63;;;;;;;12.73;48.49;99963.25;115640;1196;103207;-79
2021/04/03 09:09:28;;;;;;;4.47;3.30;;;;;;;13.12;47.14;99971.05;115578;1196;102987;-79
2021/04/03 09:12:07;;;;;;;5.63;2.93;;;;;;;14.33;45.39;99977.27;115626;1196;103005;-78
2021/04/03 09:14:49;;;;;;;4.97;2.90;;;;;;;15.55;44.73;99965.39;115552;1199;103139;-79
2021/04/03 09:17:23;;;;;;;3.43;2.93;;;;;;;16.47;40.85;99965.26;115326;1198;103494;-80
2021/04/03 09:19:52;;;;;;;5.30;2.33;;;;;;;17.25;39.83;99956.00;115381;1199;103022;-79
2021/04/03 09:22:20;;;;;;;4.80;2.70;;;;;;;17.90;37.54;99953.48;115354;1198;102347;-79
2021/04/03 09:24:57;;;;;;;2.75;2.30;;;;;;;18.50;37.43;99962.63;115455;1198;103791;-79
2021/04/03 09:27:26;;;;;;;4.57;3.30;;;;;;;19.56;36.62;99967.36;115324;1197;103037;-79
2021/04/03 09:30:08;;;;;;;6.27;4.37;;;;;;;19.55;35.50;99957.73;115659;1196;103018;-80
2021/04/03 09:32:46;;;;;;;3.47;2.07;;;;;;;19.01;34.59;99958.95;115326;1196;103040;-78
2021/04/03 09:35:24;;;;;;;4.03;2.43;;;;;;;18.35;34.13;99967.16;115371;1199;103034;-79
2021/04/03 09:37:58;;;;;;;;;;;;;;;17.52;33.66;99970.02;115623;1204;103107;-78
2021/04/03 09:40:34;;;;;;;5.50;3.60;;;;;;;16.67;33.46;99979.87;115686;1196;102980;-79
2021/04/03 09:43:02;;;;;;;6.17;3.40;;;;;;;16.73;35.40;99969.83;115353;1199;102986;-79
2021/04/03 09:45:30;;;;;;;5.43;2.80;;;;;;;16.94;34.90;99969.42;115554;1199;102993;-79
2021/04/03 09:48:00;;;;;;;3.33;2.23;;;;;;;16.61;34.53;99973.16;115365;1198;103002;-79
2021/04/03 09:50:28;;;;;;;5.00;3.17;;;;;;;16.01;33.83;99981.18;115330;1199;103034;-79
2021/04/03 09:52:55;;;;;;;2.50;1.97;;;;;;;15.20;33.88;99979.66;115301;1200;103033;-78
2021/04/03 09:55:23;;;;;;;3.37;2.20;;;;;;;14.43;34.28;99985.53;115317;1197;102989;-79
2021/04/03 09:57:50;;;;;;;6.23;4.33;;;;;;;13.82;35.15;99978.14;115582;1199;104021;-79
2021/04/03 10:00:17;;;;;;;7.95;5.28;;;;;;;13.38;35.94;99990.80;115385;1196;103078;-79
2021/04/03 10:02:44;;;;;;;4.00;3.00;;;;;;;13.82;36.27;99986.88;115403;1196;103015;-78
2021/04/03 10:05:12;;;;;;;5.43;2.80;;;;;;;14.48;36.40;99983.53;115331;1199;102995;-78
2021/04/03 10:07:39;;;;;;;3.13;2.73;;;;;;;14.84;36.64;99975.48;115572;1199;102971;-79
2021/04/03 10:10:08;;;;;;;4.00;2.63;;;;;;;14.91;35.98;99974.24;115629;1196;103097;-79
2021/04/03 10:12:35;;;;;;;3.63;2.33;;;;;;;14.99;35.70;99979.91;115364;1199;103009;-79
2021/04/03 10:15:03;;;;;;;3.10;2.20;;;;;;;14.88;33.57;99971.75;115396;1196;103014;-79
2021/04/03 10:17:30;;;;;;;6.03;2.30;;;;;;;14.45;33.47;99966.18;115609;1196;103025;-79
2021/04/03 10:19:57;;;;;;;3.60;2.00;;;;;;;14.80;35.04;99982.69;115348;1194;103060;-79
2021/04/03 10:22:24;;;;;;;4.03;2.47;;;;;;;15.57;34.63;99971.40;115601;1196;103053;-79
2021/04/03 10:24:53;;;;;;;2.50;1.90;;;;;;;15.88;33.23;99965.27;115550;1196;103066;-80
2021/04/03 10:27:21;;;;;;;5.93;3.43;;;;;;;15.81;33.35;99970.98;115374;1196;103063;-78
2021/04/03 10:29:48;;;;;;;4.40;2.30;;;;;;;15.57;30.04;99966.14;115389;1199;103031;-80
2021/04/03 10:32:15;;;;;;;2.30;1.90;;;;;;;14.75;31.83;99970.74;115482;1199;103107;-78
2021/04/03 10:34:43;;;;;;;4.70;2.27;;;;;;;14.08;32.62;99979.47;115521;1198;103164;-79
2021/04/03 10:37:10;;;;;;;3.33;2.10;;;;;;;13.53;32.66;99983.05;115395;1199;103149;-78
2021/04/03 10:39:38;;;;;;;3.75;1.90;;;;;;;13.04;33.35;99974.02;115386;1199;102960;-79
2021/04/03 10:42:06;;;;;;;2.93;1.87;;;;;;;12.93;33.46;99971.06;115393;1199;103143;-79
2021/04/03 10:44:34;;;;;;;3.53;2.23;;;;;;;12.69;33.33;99989.56;115342;1198;103175;-80
2021/04/03 10:47:01;;;;;;;3.03;1.80;;;;;;;12.54;34.27;99987.62;115383;1200;103050;-78
2021/04/03 10:49:29;;;;;;;3.73;1.70;;;;;;;12.91;34.54;99985.96;115511;1197;103011;-78
2021/04/03 10:51:56;;;;;;;4.68;2.03;;;;;;;13.63;34.54;99978.20;115397;1199;103137;-78
2021/04/03 10:54:23;;;;;;;3.37;2.07;;;;;;;14.32;34.25;99972.95;115349;1199;103098;-78
2021/04/03 10:56:50;;;;;;;4.87;1.87;;;;;;;14.88;33.56;99976.16;115312;1199;101039;-79
2021/04/03 10:59:17;;;;;;;3.35;1.65;;;;;;;15.44;33.30;99970.42;115357;1198;103146;-79
2021/04/03 11:01:45;;;;;;;2.97;1.77;;;;;;;16.11;33.36;99969.16;115319;1199;102992;-79
2021/04/03 11:04:12;;;;;;;2.83;1.67;;;;;;;16.69;32.75;99962.19;115474;1199;103034;-79
2021/04/03 11:06:39;;;;;;;3.53;1.70;;;;;;;17.18;31.93;99960.80;115488;1199;103043;-79
2021/04/03 11:09:06;;;;;;;2.87;1.60;;;;;;;17.61;31.43;99962.47;115428;1199;103092;-79
2021/04/03 11:11:33;;;;;;;4.13;2.07;;;;;;;17.82;30.67;99955.80;115291;1199;102848;-79
2021/04/03 11:14:01;;;;;;;4.67;2.00;;;;;;;17.84;30.51;99951.27;115378;1198;103018;-79
2021/04/03 11:16:29;;;;;;;3.03;1.80;;;;;;;18.30;30.80;99956.89;115352;1199;103459;-79
2021/04/03 11:18:57;;;;;;;4.63;2.03;;;;;;;18.52;28.91;99939.59;115366;1196;103082;-79
2021/04/03 11:21:24;;;;;;;3.47;2.00;;;;;;;18.00;27.62;99964.28;115357;1196;103047;-79
2021/04/03 11:23:51;;;;;;;4.23;2.00;;;;;;;17.20;27.44;99936.98;115323;1199;103078;-79
2021/04/03 11:26:18;;;;;;;4.10;1.90;;;;;;;16.25;27.42;99963.93;115408;1199;103004;-79
2021/04/03 11:28:46;;;;;;;4.83;3.03;;;;;;;15.50;27.92;99970.07;115575;1199;103484;-79
2021/04/03 11:31:13;;;;;;;3.28;1.68;;;;;;;15.15;29.01;99965.94;115515;1198;103400;-79
2021/04/03 11:33:40;;;;;;;3.67;2.17;;;;;;;15.03;28.89;99970.92;115355;1196;103059;-79
2021/04/03 11:36:07;;;;;;;2.10;1.20;;;;;;;14.69;29.00;99976.30;115572;1196;103155;-79
2021/04/03 11:38:35;;;;;;;1.77;1.20;;;;;;;14.35;29.29;99978.03;115349;1196;102970;-78